Time;durP1;ratioP1;P1;durP2;ratioP2;P2;SDS_P1;SDS_P2;PMS_P1;PMS_P2;Temp;Humidity;BMP_temperature;BMP_pressure;BME280_temperature;BME280_humidity;BME280_pressure;Samples;Min_cycle;Max_cycle;Signal;HPM_P1;HPM_P2
2021/03/02 00:02:00;;;;;;;19.85;9.50;;;5.10;99.90;;;;;;5084848;28;20390;-52
2021/03/02 00:04:27;;;;;;;18.27;9.10;;;5.10;99.90;;;;;;5071685;28;20409;-52
2021/03/02 00:06:54;;;;;;;15.45;8.80;;;7.90;99.90;;;;;;5088442;28;20389;-47
2021/03/02 00:09:20;;;;;;;15.90;8.35;;;5.10;99.90;;;;;;5086274;28;20480;-47
2021/03/02 00:11:48;;;;;;;17.85;9.07;;;4.90;99.90;;;;;;5089647;28;20385;-47
2021/03/02 00:14:13;;;;;;;15.47;8.60;;;4.90;99.90;;;;;;5084052;28;20405;-49
2021/03/02 00:16:46;;;;;;;19.60;9.13;;;5.00;99.90;;;;;;5087596;28;20398;-47
2021/03/02 00:19:17;;;;;;;14.10;8.35;;;7.30;99.90;;;;;;5076115;28;20441;-47
2021/03/02 00:21:50;;;;;;;15.18;9.23;;;7.40;99.90;;;;;;5072273;28;20398;-47
2021/03/02 00:24:28;;;;;;;17.33;9.15;;;6.70;99.90;;;;;;5069594;28;20403;-47
2021/03/02 00:26:56;;;;;;;18.37;9.80;;;7.10;99.90;;;;;;5069696;28;20443;-47
2021/03/02 00:29:23;;;;;;;17.50;8.80;;;5.20;99.90;;;;;;5070034;28;20429;-47
2021/03/02 00:31:49;;;;;;;16.15;8.90;;;5.20;99.90;;;;;;5069197;28;20391;-47
2021/03/02 00:34:16;;;;;;;18.40;9.60;;;7.70;99.90;;;;;;5069631;28;20399;-47
2021/03/02 00:36:41;;;;;;;17.92;9.25;;;7.00;99.90;;;;;;5068698;28;20401;-47
2021/03/02 00:39:07;;;;;;;18.10;9.60;;;5.10;99.90;;;;;;5069991;28;20375;-47
2021/03/02 00:41:33;;;;;;;16.33;9.00;;;5.00;99.90;;;;;;5069011;28;20427;-49
2021/03/02 00:43:59;;;;;;;18.43;9.50;;;4.90;99.90;;;;;;5070087;28;20711;-47
2021/03/02 00:46:24;;;;;;;17.20;9.53;;;4.80;99.90;;;;;;5069681;28;20403;-51
2021/03/02 00:48:50;;;;;;;18.33;9.90;;;4.80;99.90;;;;;;5069215;28;20436;-47
2021/03/02 00:51:16;;;;;;;16.35;9.30;;;4.80;99.90;;;;;;5070070;28;20375;-47
2021/03/02 00:53:42;;;;;;;20.70;10.00;;;6.00;99.90;;;;;;5069068;28;20419;-48
2021/03/02 00:56:08;;;;;;;18.20;9.60;;;4.70;99.90;;;;;;5069753;28;20394;-47
2021/03/02 00:58:34;;;;;;;19.00;9.80;;;4.60;99.90;;;;;;5069273;28;20379;-49
2021/03/02 01:00:59;;;;;;;17.60;9.30;;;4.50;99.90;;;;;;5069875;28;20753;-49
2021/03/02 01:03:25;;;;;;;15.98;8.15;;;6.10;99.90;;;;;;5069511;28;20464;-52
2021/03/02 01:05:50;;;;;;;20.00;9.87;;;3.90;99.90;;;;;;5069100;28;20386;-47
2021/03/02 01:08:16;;;;;;;18.58;9.40;;;6.70;99.90;;;;;;5051749;28;20736;-49
2021/03/02 01:10:42;;;;;;;19.23;9.20;;;3.70;99.90;;;;;;5068458;28;20401;-48
2021/03/02 01:13:08;;;;;;;16.67;9.00;;;4.80;99.90;;;;;;5051790;28;20388;-47
2021/03/02 01:15:33;;;;;;;18.50;9.80;;;3.40;99.90;;;;;;5068997;28;20387;-47
2021/03/02 01:17:59;;;;;;;17.13;9.50;;;3.20;99.90;;;;;;5069872;28;20387;-46
2021/03/02 01:20:25;;;;;;;18.63;9.80;;;3.20;99.90;;;;;;5069665;28;20437;-49
2021/03/02 01:22:50;;;;;;;17.80;10.17;;;3.20;99.90;;;;;;5068778;28;20383;-48
2021/03/02 01:25:16;;;;;;;17.57;10.20;;;3.20;99.90;;;;;;5068903;28;20734;-49
2021/03/02 01:27:42;;;;;;;17.02;9.30;;;3.30;99.90;;;;;;5068837;28;20690;-48
2021/03/02 01:30:11;;;;;;;19.17;9.52;;;3.40;99.90;;;;;;5069629;28;20399;-47
2021/03/02 01:32:37;;;;;;;19.90;9.82;;;3.40;99.90;;;;;;5068730;28;20383;-48
2021/03/02 01:35:10;;;;;;;19.23;8.90;;;3.50;99.90;;;;;;5050991;28;20781;-48
2021/03/02 01:37:37;;;;;;;18.30;9.67;;;3.60;99.90;;;;;;5066146;28;20415;-47
2021/03/02 01:40:14;;;;;;;15.95;9.00;;;4.00;99.90;;;;;;5081287;28;20380;-49
2021/03/02 01:42:40;;;;;;;18.83;9.15;;;3.70;99.90;;;;;;5072250;28;20384;-48
2021/03/02 01:45:08;;;;;;;19.25;9.52;;;3.70;99.90;;;;;;5055242;28;20384;-47
2021/03/02 01:47:35;;;;;;;16.27;8.73;;;3.60;99.90;;;;;;5072154;28;20398;-49
2021/03/02 01:50:02;;;;;;;20.05;9.38;;;3.40;99.90;;;;;;5072877;28;20406;-49
2021/03/02 01:52:28;;;;;;;19.55;9.48;;;6.20;99.90;;;;;;5072342;28;20421;-48
2021/03/02 01:54:53;;;;;;;16.40;9.15;;;3.20;99.90;;;;;;5072495;28;20450;-48
2021/03/02 01:57:19;;;;;;;19.23;9.67;;;6.00;99.90;;;;;;5072596;28;20448;-49
2021/03/02 01:59:44;;;;;;;19.67;9.40;;;3.30;99.90;;;;;;5071885;28;20436;-48
2021/03/02 02:02:16;;;;;;;18.00;9.73;;;6.30;99.90;;;;;;5072379;28;20376;-49
2021/03/02 02:04:47;;;;;;;21.23;9.30;;;3.40;99.90;;;;;;5071846;28;20397;-47
2021/03/02 02:07:19;;;;;;;18.52;10.18;;;3.40;99.90;;;;;;5072340;28;20753;-49
2021/03/02 02:10:07;;;;;;;17.50;9.10;;;3.30;99.90;;;;;;5071415;28;20392;-48
2021/03/02 02:12:37;;;;;;;20.70;10.10;;;3.40;99.90;;;;;;5071875;28;20475;-47
2021/03/02 02:15:04;;;;;;;17.75;10.07;;;4.50;99.90;;;;;;5080213;28;20898;-49
2021/03/02 02:17:57;;;;;;;19.48;9.80;;;3.30;99.90;;;;;;5075552;28;20487;-53
2021/03/02 02:20:41;;;;;;;23.23;11.38;;;3.30;99.90;;;;;;5049904;28;20449;-47
2021/03/02 02:23:28;;;;;;;21.48;10.75;;;3.30;99.90;;;;;;5075456;28;20429;-48
2021/03/02 02:26:17;;;;;;;22.73;11.45;;;3.40;99.90;;;;;;5071704;28;20383;-49
2021/03/02 02:28:44;;;;;;;21.08;10.00;;;3.40;99.90;;;;;;5071807;28;20395;-47
2021/03/02 02:31:11;;;;;;;18.50;9.52;;;5.10;99.90;;;;;;5072294;28;20390;-47
2021/03/02 02:33:40;;;;;;;19.15;10.05;;;3.10;99.90;;;;;;5053452;28;20824;-48
2021/03/02 02:36:09;;;;;;;18.85;10.70;;;2.90;99.90;;;;;;5072431;28;20408;-46
2021/03/02 02:38:38;;;;;;;19.83;10.10;;;3.00;99.90;;;;;;5070583;28;20398;-47
2021/03/02 02:41:05;;;;;;;23.70;10.82;;;3.10;99.90;;;;;;5072066;28;20375;-50
2021/03/02 02:43:32;;;;;;;18.88;9.57;;;3.20;99.90;;;;;;5070695;28;20434;-49
2021/03/02 02:45:58;;;;;;;21.33;10.50;;;4.20;99.90;;;;;;5087404;28;20377;-48
2021/03/02 02:48:25;;;;;;;20.67;11.10;;;3.30;99.90;;;;;;5082189;28;20477;-47
2021/03/02 02:50:54;;;;;;;18.27;9.98;;;3.30;99.90;;;;;;5091088;28;21297;-47
2021/03/02 02:53:20;;;;;;;20.70;10.30;;;3.30;99.90;;;;;;5091710;28;20712;-47
2021/03/02 02:56:13;;;;;;;19.25;10.05;;;3.20;99.90;;;;;;5090846;28;20882;-47
2021/03/02 02:58:44;;;;;;;22.27;11.30;;;6.30;99.90;;;;;;5086897;28;20488;-47
2021/03/02 03:01:12;;;;;;;20.20;10.40;;;6.00;99.90;;;;;;5091718;28;20728;-47
2021/03/02 03:03:44;;;;;;;18.60;10.60;;;5.50;99.90;;;;;;5091085;28;20378;-48
2021/03/02 03:06:13;;;;;;;19.02;10.38;;;2.80;99.90;;;;;;5091614;28;20398;-49
2021/03/02 03:08:47;;;;;;;19.08;10.52;;;2.70;99.90;;;;;;5090942;28;20381;-48
2021/03/02 03:11:14;;;;;;;19.88;10.95;;;2.70;99.90;;;;;;5091492;28;20378;-47
2021/03/02 03:13:43;;;;;;;20.77;10.80;;;2.70;99.90;;;;;;5090416;28;20497;-47
2021/03/02 03:16:11;;;;;;;19.20;10.98;;;2.80;99.90;;;;;;5091727;28;20382;-47
2021/03/02 03:18:51;;;;;;;21.50;10.77;;;2.90;99.90;;;;;;5091044;28;20488;-48
2021/03/02 03:21:17;;;;;;;21.97;11.43;;;2.90;99.90;;;;;;5091452;28;20370;-49
2021/03/02 03:23:43;;;;;;;21.83;10.88;;;3.00;99.90;;;;;;5090844;28;20411;-49
2021/03/02 03:26:11;;;;;;;22.80;10.55;;;3.10;99.90;;;;;;5091299;28;20367;-47
2021/03/02 03:28:37;;;;;;;20.83;10.50;;;3.20;99.90;;;;;;5090515;28;20378;-47
2021/03/02 03:31:05;;;;;;;22.77;10.93;;;3.10;99.90;;;;;;5091348;28;20370;-48
2021/03/02 03:33:32;;;;;;;19.80;10.10;;;3.10;99.90;;;;;;5090583;28;20413;-52
2021/03/02 03:35:57;;;;;;;20.58;10.18;;;3.10;99.90;;;;;;5090701;28;20406;-47
2021/03/02 03:38:23;;;;;;;24.10;11.23;;;3.00;99.90;;;;;;5091300;28;20378;-47
2021/03/02 03:40:50;;;;;;;20.73;10.20;;;2.90;99.90;;;;;;5090245;28;20729;-49
2021/03/02 03:43:16;;;;;;;21.05;11.15;;;2.90;99.90;;;;;;5072913;28;20406;-47
2021/03/02 03:45:41;;;;;;;21.27;10.18;;;4.80;99.90;;;;;;5090312;28;20413;-48
2021/03/02 03:48:07;;;;;;;20.50;10.00;;;3.60;99.90;;;;;;5083465;28;20406;-47
2021/03/02 03:50:33;;;;;;;19.20;10.73;;;3.00;99.90;;;;;;5068963;28;20415;-49
2021/03/02 03:53:02;;;;;;;23.63;11.20;;;3.00;99.90;;;;;;5069808;28;20426;-48
2021/03/02 03:55:49;;;;;;;20.65;10.60;;;2.90;99.90;;;;;;5069841;28;20434;-47
2021/03/02 03:58:19;;;;;;;17.27;9.55;;;2.90;99.90;;;;;;5070821;28;20453;-48
2021/03/02 04:00:49;;;;;;;18.70;10.05;;;2.80;99.90;;;;;;5069471;28;20392;-47
2021/03/02 04:03:15;;;;;;;19.97;9.80;;;2.70;99.90;;;;;;5070270;28;20437;-47
2021/03/02 04:05:42;;;;;;;21.30;10.23;;;2.70;99.90;;;;;;5069426;28;20387;-47
2021/03/02 04:08:08;;;;;;;21.43;11.53;;;2.60;99.90;;;;;;5056951;28;20472;-47
2021/03/02 04:10:34;;;;;;;18.60;10.27;;;5.70;99.90;;;;;;5077353;28;20380;-47
2021/03/02 04:13:17;;;;;;;20.13;11.00;;;2.50;99.90;;;;;;5069971;28;20387;-47
2021/03/02 04:15:43;;;;;;;21.60;10.77;;;2.50;99.90;;;;;;5069304;28;20566;-47
2021/03/02 04:18:18;;;;;;;17.95;10.07;;;2.50;99.90;;;;;;5069894;28;20376;-47
2021/03/02 04:20:47;;;;;;;19.27;10.18;;;3.90;99.90;;;;;;5069058;28;20440;-47
2021/03/02 04:23:14;;;;;;;22.60;11.50;;;2.30;99.90;;;;;;5069654;28;20466;-47
2021/03/02 04:25:39;;;;;;;21.88;11.13;;;2.50;99.90;;;;;;5069422;28;20430;-48
2021/03/02 04:28:06;;;;;;;21.10;12.30;;;2.60;99.90;;;;;;5072359;28;20427;-48
2021/03/02 04:30:32;;;;;;;24.17;11.50;;;2.60;99.90;;;;;;5072033;28;20845;-53
2021/03/02 04:32:58;;;;;;;21.25;11.10;;;2.90;99.90;;;;;;5070633;28;20546;-47
2021/03/02 04:35:24;;;;;;;19.90;10.93;;;2.60;99.90;;;;;;5069751;28;20502;-48
2021/03/02 04:37:50;;;;;;;21.27;12.18;;;2.70;99.90;;;;;;5072222;28;20403;-48
2021/03/02 04:40:16;;;;;;;22.17;11.60;;;2.70;99.90;;;;;;5070776;28;20379;-47
2021/03/02 04:42:44;;;;;;;22.30;11.63;;;2.70;99.90;;;;;;5070191;28;20400;-48
2021/03/02 04:45:10;;;;;;;24.75;12.70;;;2.70;99.90;;;;;;5070392;28;20861;-49
2021/03/02 04:47:37;;;;;;;25.58;12.35;;;2.70;99.90;;;;;;5075716;28;20482;-47
2021/03/02 04:50:04;;;;;;;22.80;12.27;;;2.70;99.90;;;;;;5088859;28;20386;-48
2021/03/02 04:52:30;;;;;;;23.63;12.55;;;2.80;99.90;;;;;;5081251;28;20886;-52
2021/03/02 04:54:56;;;;;;;23.33;12.13;;;5.20;99.90;;;;;;5089545;28;20480;-47
2021/03/02 04:57:22;;;;;;;23.75;12.35;;;2.80;99.90;;;;;;5083418;28;20417;-48
2021/03/02 04:59:47;;;;;;;20.42;11.13;;;2.80;99.90;;;;;;5088644;28;20386;-48
2021/03/02 05:02:13;;;;;;;22.50;12.07;;;5.80;99.90;;;;;;5084446;28;20930;-47
2021/03/02 05:04:39;;;;;;;24.33;12.27;;;2.80;99.90;;;;;;5088899;28;20386;-48
2021/03/02 05:07:04;;;;;;;21.75;11.35;;;4.20;99.90;;;;;;5089747;28;20765;-48
2021/03/02 05:09:30;;;;;;;21.63;11.98;;;2.80;99.90;;;;;;5090095;28;20819;-50
2021/03/02 05:11:56;;;;;;;21.88;11.77;;;2.80;99.90;;;;;;5089410;28;20370;-47
2021/03/02 05:14:22;;;;;;;21.80;12.27;;;2.80;99.90;;;;;;5094946;28;20755;-47
2021/03/02 05:16:48;;;;;;;22.90;12.30;;;2.80;99.90;;;;;;5093499;28;20472;-47
2021/03/02 05:19:15;;;;;;;20.85;11.80;;;2.80;99.90;;;;;;5094159;28;20378;-46
2021/03/02 05:21:40;;;;;;;21.17;12.43;;;2.60;99.90;;;;;;5093058;28;20392;-49
2021/03/02 05:24:06;;;;;;;21.33;12.35;;;2.60;99.90;;;;;;5093087;28;20390;-46
2021/03/02 05:26:32;;;;;;;23.00;12.25;;;2.60;99.90;;;;;;5092989;28;20859;-49
2021/03/02 05:28:58;;;;;;;23.10;13.02;;;2.50;99.90;;;;;;5093805;28;20460;-48
2021/03/02 05:31:24;;;;;;;25.45;12.50;;;2.50;99.90;;;;;;5093739;28;20942;-46
2021/03/02 05:33:50;;;;;;;23.77;12.20;;;2.40;99.90;;;;;;5092553;28;20401;-48
2021/03/02 05:36:15;;;;;;;23.77;13.48;;;3.70;99.90;;;;;;5093176;28;20420;-47
2021/03/02 05:38:41;;;;;;;23.03;12.63;;;2.30;99.90;;;;;;5092772;28;20469;-46
2021/03/02 05:41:11;;;;;;;22.00;12.90;;;2.20;99.90;;;;;;5093525;28;20374;-49
2021/03/02 05:43:41;;;;;;;24.27;13.45;;;4.90;99.90;;;;;;5092754;28;20382;-47
2021/03/02 05:46:07;;;;;;;24.17;13.27;;;2.20;99.90;;;;;;5093562;28;20369;-47
2021/03/02 05:48:33;;;;;;;26.73;13.40;;;2.20;99.90;;;;;;5093252;28;20405;-57
2021/03/02 05:50:59;;;;;;;23.15;12.98;;;2.20;99.90;;;;;;5093114;28;20401;-47
2021/03/02 05:53:25;;;;;;;24.40;13.32;;;2.20;99.90;;;;;;5093008;28;20431;-46
2021/03/02 05:55:51;;;;;;;23.67;13.40;;;2.20;99.90;;;;;;5091844;28;20492;-46
2021/03/02 05:58:16;;;;;;;24.00;13.60;;;2.20;99.90;;;;;;5092734;28;20405;-48
2021/03/02 06:00:43;;;;;;;26.47;15.13;;;2.20;99.90;;;;;;5091830;28;20386;-46
2021/03/02 06:03:09;;;;;;;25.67;14.77;;;2.20;99.90;;;;;;5092765;28;20366;-47
2021/03/02 06:05:35;;;;;;;26.30;15.68;;;2.10;99.90;;;;;;5092435;28;20370;-47
2021/03/02 06:08:01;;;;;;;28.27;16.80;;;2.10;99.90;;;;;;5085611;28;20885;-47
2021/03/02 06:10:31;;;;;;;26.90;15.15;;;2.20;99.90;;;;;;5072069;28;20397;-47
2021/03/02 06:12:58;;;;;;;29.70;17.45;;;5.10;99.90;;;;;;5086926;28;20374;-47
2021/03/02 06:15:25;;;;;;;24.45;16.20;;;2.20;99.90;;;;;;5092849;28;20428;-48
2021/03/02 06:18:12;;;;;;;29.52;17.27;;;2.20;99.90;;;;;;5072050;28;20763;-47
2021/03/02 06:20:42;;;;;;;26.27;15.30;;;2.30;99.90;;;;;;5091899;28;20468;-47
2021/03/02 06:23:31;;;;;;;28.75;16.00;;;2.40;99.90;;;;;;5075833;28;20384;-48
2021/03/02 06:26:13;;;;;;;34.33;16.10;;;2.40;99.90;;;;;;5056652;28;20782;-48
2021/03/02 06:28:43;;;;;;;26.73;14.10;;;2.30;99.90;;;;;;5092138;28;20386;-47
2021/03/02 06:31:37;;;;;;;27.65;14.75;;;2.40;99.90;;;;;;5092713;28;20374;-47
2021/03/02 06:34:06;;;;;;;26.67;14.43;;;3.10;99.90;;;;;;5092287;28;20743;-47
2021/03/02 06:36:31;;;;;;;20.93;12.33;;;4.10;99.90;;;;;;5073959;28;20422;-49
2021/03/02 06:38:57;;;;;;;22.97;12.53;;;5.20;99.90;;;;;;5091491;28;20477;-48
2021/03/02 06:41:22;;;;;;;23.30;12.05;;;7.80;99.90;;;;;;5092234;28;20955;-48
2021/03/02 06:43:48;;;;;;;22.20;11.30;;;7.20;99.90;;;;;;5091876;28;20383;-47
2021/03/02 06:46:14;;;;;;;21.88;11.85;;;9.70;99.90;;;;;;5092314;28;20844;-48
2021/03/02 06:48:51;;;;;;;20.97;12.17;;;10.30;99.90;;;;;;5073690;28;20469;-48
2021/03/02 06:51:31;;;;;;;21.27;12.00;;;8.70;99.90;;;;;;5092236;28;20382;-48
2021/03/02 06:54:07;;;;;;;21.75;11.48;;;10.20;99.90;;;;;;5088138;28;20419;-48
2021/03/02 06:56:34;;;;;;;21.70;11.50;;;10.00;99.90;;;;;;5085539;28;20410;-52
2021/03/02 06:59:22;;;;;;;20.50;11.60;;;10.50;99.90;;;;;;5091122;28;20389;-47
2021/03/02 07:01:48;;;;;;;20.33;11.70;;;10.80;99.70;;;;;;5090075;28;20385;-48
2021/03/02 07:04:15;;;;;;;21.83;11.80;;;11.60;98.10;;;;;;5087568;28;20405;-47
2021/03/02 07:06:46;;;;;;;20.05;12.45;;;12.20;95.70;;;;;;5090293;28;20748;-47
2021/03/02 07:09:14;;;;;;;25.02;12.07;;;12.70;93.80;;;;;;5091744;28;20479;-48
2021/03/02 07:11:40;;;;;;;20.73;12.50;;;13.20;92.10;;;;;;5090776;28;20431;-48
2021/03/02 07:14:10;;;;;;;18.30;11.68;;;13.30;90.10;;;;;;5091396;28;20509;-48
2021/03/02 07:16:39;;;;;;;19.38;11.50;;;13.10;90.10;;;;;;5090031;28;20382;-48
2021/03/02 07:19:05;;;;;;;21.83;12.45;;;13.00;88.90;;;;;;5091487;28;20397;-47
2021/03/02 07:21:39;;;;;;;22.00;12.00;;;13.00;89.30;;;;;;5091410;28;20390;-47
2021/03/02 07:24:09;;;;;;;24.00;12.53;;;13.10;89.00;;;;;;5090780;28;20393;-48
2021/03/02 07:26:36;;;;;;;21.73;12.50;;;13.00;89.00;;;;;;5090923;28;20468;-52
2021/03/02 07:29:03;;;;;;;19.85;11.60;;;13.10;90.00;;;;;;5091110;28;20385;-48
2021/03/02 07:31:35;;;;;;;19.80;11.80;;;13.20;88.90;;;;;;5090476;28;20389;-48
2021/03/02 07:34:01;;;;;;;24.73;12.15;;;13.80;86.10;;;;;;5090696;28;20413;-48
2021/03/02 07:36:37;;;;;;;19.25;11.70;;;13.80;85.90;;;;;;5090191;28;20403;-48
2021/03/02 07:39:11;;;;;;;22.08;12.95;;;14.10;83.60;;;;;;5090880;28;20386;-48
2021/03/02 07:41:38;;;;;;;19.53;12.33;;;14.80;81.50;;;;;;5090370;28;20439;-53
2021/03/02 07:44:03;;;;;;;20.23;12.05;;;15.40;79.70;;;;;;5090976;28;20389;-49
2021/03/02 07:46:39;;;;;;;20.35;12.40;;;16.50;75.90;;;;;;5088753;28;20378;-48
2021/03/02 07:49:23;;;;;;;21.50;13.05;;;16.60;72.50;;;;;;5091623;28;20390;-48
2021/03/02 07:52:01;;;;;;;18.42;11.88;;;16.80;71.20;;;;;;5089926;28;20843;-48
2021/03/02 07:54:31;;;;;;;18.85;12.25;;;17.50;68.30;;;;;;5090621;28;20489;-48
2021/03/02 07:57:15;;;;;;;21.95;12.80;;;18.00;64.80;;;;;;5089166;28;20448;-48
2021/03/02 08:00:21;;;;;;;18.92;12.90;;;17.50;65.10;;;;;;5089952;28;20386;-47
2021/03/02 08:03:18;;;;;;;18.83;11.47;;;17.90;63.40;;;;;;5089800;28;20381;-48
2021/03/02 08:05:44;;;;;;;17.75;12.18;;;18.00;62.60;;;;;;5069210;28;20478;-48
2021/03/02 08:08:25;;;;;;;19.52;12.45;;;17.60;64.40;;;;;;5070045;28;20367;-48
2021/03/02 08:10:55;;;;;;;21.20;11.98;;;18.40;61.60;;;;;;5069187;28;20391;-48
2021/03/02 08:13:33;;;;;;;20.90;13.00;;;19.10;59.40;;;;;;5069907;28;20464;-48
2021/03/02 08:15:59;;;;;;;20.13;12.40;;;19.00;59.10;;;;;;5069445;28;21014;-47
2021/03/02 08:18:46;;;;;;;19.77;12.27;;;19.30;58.30;;;;;;5088834;28;20770;-47
2021/03/02 08:21:17;;;;;;;18.95;12.23;;;19.40;57.50;;;;;;5087156;28;20402;-48
2021/03/02 08:23:53;;;;;;;17.77;12.52;;;19.00;57.60;;;;;;5088963;28;20895;-47
2021/03/02 08:26:25;;;;;;;19.25;11.90;;;18.50;58.10;;;;;;5089485;28;20457;-46
2021/03/02 08:29:07;;;;;;;19.95;11.63;;;18.50;57.80;;;;;;5086323;28;20386;-48
2021/03/02 08:31:33;;;;;;;21.38;11.73;;;18.40;58.20;;;;;;5087980;28;20382;-47
2021/03/02 08:34:00;;;;;;;19.58;11.25;;;18.50;59.10;;;;;;5078562;28;20496;-47
2021/03/02 08:36:27;;;;;;;17.50;11.85;;;18.20;57.90;;;;;;5087880;28;20897;-48
2021/03/02 08:38:52;;;;;;;18.00;11.70;;;18.50;59.00;;;;;;5089464;28;20863;-47
2021/03/02 08:41:32;;;;;;;19.90;11.30;;;18.80;57.20;;;;;;5088615;28;20422;-48
2021/03/02 08:43:59;;;;;;;18.90;11.57;;;18.60;58.10;;;;;;5085138;28;20524;-47
2021/03/02 08:46:30;;;;;;;20.33;11.65;;;18.20;58.10;;;;;;5088636;28;20382;-47
2021/03/02 08:48:56;;;;;;;17.40;10.95;;;18.20;57.90;;;;;;5081831;28;20378;-47
2021/03/02 08:51:23;;;;;;;20.67;12.25;;;17.40;59.10;;;;;;5088466;28;20478;-48
2021/03/02 08:53:53;;;;;;;18.60;12.23;;;16.80;59.70;;;;;;5088074;28;20475;-47
2021/03/02 08:56:23;;;;;;;21.30;11.98;;;16.70;61.20;;;;;;5088834;28;20382;-47
2021/03/02 08:58:50;;;;;;;19.35;11.70;;;17.20;62.10;;;;;;5085217;28;20409;-49
2021/03/02 09:01:26;;;;;;;18.38;11.90;;;17.50;60.50;;;;;;5088548;28;20386;-47
2021/03/02 09:03:53;;;;;;;19.00;11.33;;;18.20;59.80;;;;;;5081639;28;20480;-48
2021/03/02 09:06:26;;;;;;;17.20;12.10;;;18.30;59.30;;;;;;5088274;28;20443;-47
2021/03/02 09:08:57;;;;;;;18.70;11.77;;;18.90;58.30;;;;;;5086356;28;20402;-47
2021/03/02 09:11:27;;;;;;;18.10;11.63;;;19.90;57.20;;;;;;5088418;28;20374;-47
2021/03/02 09:13:54;;;;;;;22.42;12.95;;;20.30;56.10;;;;;;5083793;28;20414;-47
2021/03/02 09:16:46;;;;;;;21.33;12.32;;;20.60;54.80;;;;;;5087347;28;20448;-47
2021/03/02 09:19:20;;;;;;;18.20;11.80;;;20.30;55.20;;;;;;5087545;28;20382;-48
2021/03/02 09:21:51;;;;;;;19.58;12.23;;;20.20;55.30;;;;;;5087076;28;20393;-47
2021/03/02 09:24:19;;;;;;;16.50;10.88;;;20.10;55.70;;;;;;5088191;28;20409;-47
2021/03/02 09:26:56;;;;;;;17.85;11.60;;;20.60;54.40;;;;;;5088109;28;20397;-47
2021/03/02 09:29:24;;;;;;;18.48;12.20;;;20.50;54.50;;;;;;5085496;28;20390;-47
2021/03/02 09:31:52;;;;;;;20.08;12.05;;;20.70;53.50;;;;;;5087558;28;20744;-47
2021/03/02 09:34:18;;;;;;;18.05;11.80;;;20.10;54.40;;;;;;5087874;28;20406;-51
2021/03/02 09:36:44;;;;;;;19.58;12.10;;;19.50;55.00;;;;;;5086743;28;20406;-47
2021/03/02 09:39:25;;;;;;;17.88;11.45;;;20.00;55.80;;;;;;5084786;28;20882;-47
2021/03/02 09:41:52;;;;;;;17.98;12.05;;;20.30;54.10;;;;;;5087928;28;20453;-48
2021/03/02 09:44:18;;;;;;;18.50;12.30;;;19.80;54.10;;;;;;5087414;28;20393;-47
2021/03/02 09:46:44;;;;;;;21.00;12.45;;;20.50;54.50;;;;;;5085983;28;20390;-49
2021/03/02 09:49:10;;;;;;;19.58;12.20;;;20.90;52.30;;;;;;5085789;28;20390;-47
2021/03/02 09:51:35;;;;;;;18.90;13.10;;;20.60;52.90;;;;;;5088808;28;20400;-47
2021/03/02 09:54:16;;;;;;;19.15;13.70;;;20.80;53.20;;;;;;5068285;28;20438;-47
2021/03/02 09:56:46;;;;;;;20.35;13.18;;;21.00;52.90;;;;;;5086327;28;20408;-47
2021/03/02 09:59:20;;;;;;;19.88;14.00;;;21.30;52.20;;;;;;5086950;28;20402;-47
2021/03/02 10:01:46;;;;;;;23.48;13.68;;;21.20;52.00;;;;;;5087596;28;20394;-48
2021/03/02 10:04:11;;;;;;;23.13;14.13;;;20.60;53.00;;;;;;5086642;28;20398;-47
2021/03/02 10:06:37;;;;;;;18.87;13.07;;;20.70;53.30;;;;;;5091945;28;20426;-52
2021/03/02 10:09:03;;;;;;;23.85;13.40;;;21.50;52.40;;;;;;5072125;28;20431;-48
2021/03/02 10:11:30;;;;;;;22.17;14.25;;;22.00;51.80;;;;;;5075515;28;20757;-47
2021/03/02 10:13:58;;;;;;;22.97;13.33;;;22.40;51.30;;;;;;5091282;28;20837;-47
2021/03/02 10:16:29;;;;;;;22.02;13.85;;;22.80;50.30;;;;;;5086947;28;20391;-47
2021/03/02 10:19:17;;;;;;;20.45;14.25;;;22.70;50.00;;;;;;5091088;28;20386;-47
2021/03/02 10:21:56;;;;;;;20.15;13.60;;;22.20;50.50;;;;;;5079744;28;20390;-48
2021/03/02 10:24:37;;;;;;;20.67;13.67;;;21.60;51.40;;;;;;5089148;28;20404;-48
2021/03/02 10:27:10;;;;;;;23.20;14.10;;;21.60;51.80;;;;;;5090580;28;20405;-47
2021/03/02 10:29:36;;;;;;;19.77;12.60;;;21.80;51.40;;;;;;5091694;28;20408;-47
2021/03/02 10:32:03;;;;;;;19.70;13.03;;;22.00;50.00;;;;;;5085258;28;20397;-47
2021/03/02 10:34:33;;;;;;;20.75;13.77;;;22.00;49.90;;;;;;5091418;28;20538;-47
2021/03/02 10:37:00;;;;;;;19.58;12.93;;;22.00;50.90;;;;;;5089988;28;20466;-48
2021/03/02 10:39:27;;;;;;;19.77;12.30;;;22.10;50.70;;;;;;5077933;28;20390;-47
2021/03/02 10:41:53;;;;;;;20.80;12.50;;;22.30;50.00;;;;;;5091074;28;20382;-47
2021/03/02 10:44:19;;;;;;;20.95;12.63;;;22.60;49.00;;;;;;5085875;28;20952;-47
2021/03/02 10:46:45;;;;;;;22.02;12.50;;;22.60;49.00;;;;;;5088206;28;20375;-47
2021/03/02 10:49:11;;;;;;;21.15;12.52;;;22.80;48.90;;;;;;5082126;28;20398;-47
2021/03/02 10:51:36;;;;;;;17.00;10.70;;;22.90;48.60;;;;;;5088188;28;20871;-48
2021/03/02 10:54:02;;;;;;;22.33;13.20;;;22.90;48.30;;;;;;5089633;28;20413;-48
2021/03/02 10:56:28;;;;;;;18.50;11.87;;;22.70;48.50;;;;;;5088309;28;20471;-48
2021/03/02 10:58:54;;;;;;;19.70;11.73;;;23.40;47.80;;;;;;5089950;28;20405;-47
2021/03/02 11:01:22;;;;;;;17.37;11.43;;;23.60;47.50;;;;;;5090642;28;20382;-48
2021/03/02 11:03:49;;;;;;;21.67;12.45;;;23.90;46.40;;;;;;5086329;28;20399;-49
2021/03/02 11:06:16;;;;;;;20.90;12.70;;;24.20;46.30;;;;;;5089313;28;20414;-48
2021/03/02 11:08:44;;;;;;;19.92;12.63;;;24.00;45.90;;;;;;5090022;28;20379;-49
2021/03/02 11:11:10;;;;;;;22.25;13.57;;;23.80;46.40;;;;;;5088875;28;20510;-47
2021/03/02 11:13:36;;;;;;;18.83;12.48;;;24.00;45.90;;;;;;5091565;28;20366;-47
2021/03/02 11:16:02;;;;;;;20.20;12.70;;;23.90;46.30;;;;;;5090246;28;20420;-47
2021/03/02 11:18:27;;;;;;;19.60;13.35;;;24.00;46.10;;;;;;5083347;28;20435;-47
2021/03/02 11:20:53;;;;;;;20.50;13.03;;;23.90;45.70;;;;;;5089609;28;20366;-48
2021/03/02 11:23:19;;;;;;;20.70;13.80;;;23.60;46.80;;;;;;5079205;28;20400;-47
2021/03/02 11:25:44;;;;;;;19.10;12.97;;;23.70;46.50;;;;;;5070046;28;20887;-48
2021/03/02 11:28:11;;;;;;;19.58;12.35;;;23.80;46.00;;;;;;5073769;28;20857;-48
2021/03/02 11:30:39;;;;;;;22.90;13.15;;;24.60;44.80;;;;;;5070251;28;20859;-48
2021/03/02 11:33:04;;;;;;;17.20;11.88;;;24.10;44.70;;;;;;5088847;28;20378;-49
2021/03/02 11:35:31;;;;;;;20.70;12.57;;;23.30;46.00;;;;;;5071842;28;20431;-48
2021/03/02 11:37:57;;;;;;;18.95;11.93;;;23.70;45.70;;;;;;5069854;28;20850;-47
2021/03/02 11:40:23;;;;;;;19.30;12.25;;;22.90;45.20;;;;;;5071405;28;20426;-47
2021/03/02 11:42:53;;;;;;;20.60;12.43;;;21.50;47.30;;;;;;5085946;28;20436;-47
2021/03/02 11:45:20;;;;;;;21.17;12.93;;;20.80;48.80;;;;;;5089614;28;20382;-49
2021/03/02 11:47:46;;;;;;;21.75;12.80;;;20.50;50.00;;;;;;5088639;28;20417;-48
2021/03/02 11:50:12;;;;;;;18.60;12.02;;;20.00;49.70;;;;;;5090335;28;20470;-48
2021/03/02 11:52:38;;;;;;;20.02;10.85;;;19.50;49.60;;;;;;5079454;28;20395;-50
2021/03/02 11:55:06;;;;;;;20.43;12.07;;;19.50;50.30;;;;;;5069467;28;20400;-47
2021/03/02 11:57:32;;;;;;;20.83;11.85;;;19.20;50.80;;;;;;5069842;28;20403;-50
2021/03/02 11:59:59;;;;;;;21.45;12.35;;;19.30;51.30;;;;;;5084630;28;20402;-47
2021/03/02 12:02:25;;;;;;;19.95;10.15;;;19.40;51.40;;;;;;5085002;28;20438;-49
2021/03/02 12:04:51;;;;;;;19.17;12.00;;;19.00;51.30;;;;;;5089347;28;20386;-48
2021/03/02 12:07:17;;;;;;;21.10;11.65;;;18.70;51.80;;;;;;5084691;28;20476;-47
2021/03/02 12:09:43;;;;;;;21.95;12.32;;;18.70;52.00;;;;;;5087878;28;20423;-52
2021/03/02 12:12:08;;;;;;;21.60;12.57;;;18.70;52.40;;;;;;5071740;28;20760;-48
2021/03/02 12:14:35;;;;;;;19.52;11.57;;;18.80;52.30;;;;;;5084949;28;20460;-47
2021/03/02 12:17:01;;;;;;;20.17;11.50;;;18.60;52.20;;;;;;5070941;28;20386;-47
2021/03/02 12:19:27;;;;;;;19.90;11.90;;;18.70;52.10;;;;;;5088352;28;20402;-47
2021/03/02 12:21:53;;;;;;;20.27;12.18;;;18.60;53.00;;;;;;5087993;28;20386;-48
2021/03/02 12:24:19;;;;;;;20.50;11.90;;;18.50;53.00;;;;;;5087769;28;20738;-48
2021/03/02 12:26:44;;;;;;;22.05;11.93;;;18.60;53.20;;;;;;5088746;28;20394;-48
2021/03/02 12:29:11;;;;;;;19.10;11.50;;;18.60;53.10;;;;;;5086523;28;20459;-47
2021/03/02 12:31:36;;;;;;;19.80;11.88;;;18.40;53.20;;;;;;5089654;28;20408;-47
2021/03/02 12:34:02;;;;;;;18.50;11.90;;;18.40;53.60;;;;;;5080896;28;20431;-49
2021/03/02 12:36:28;;;;;;;21.60;11.23;;;18.30;54.70;;;;;;5089295;28;20405;-48
2021/03/02 12:38:54;;;;;;;21.00;12.10;;;18.60;53.80;;;;;;5083336;28;20488;-47
2021/03/02 12:41:19;;;;;;;20.00;11.80;;;19.00;53.60;;;;;;5071735;28;20934;-47
2021/03/02 12:43:45;;;;;;;18.20;11.70;;;19.10;53.20;;;;;;5088875;28;20405;-47